KHZL

Hazleton Regional Airport

Hazleton, Pennsylvania, USA
METAR KHZL 230230Z AUTO 14004KT 3/4SM BR OVC003 13/13 A3002 RMK AO2 LTG DSNT SE
Observed Flight Rules
May-23 @ 02:30 UTC (30 minutes ago) Instrument Flight Rules
Wind Visibility Clouds Conditions
140° at 4 knots 3/4 miles
  • Overcast at 300' AGL
  • Mist
Temperatures Readings
Current 13°C / 55°F
Dewpoint 13°C / 55°F
Humidity 100%
Altimeter 30.02" Hg
Pressure 1017 hPa
Elevation 489
METAR KHZL 230230Z AUTO 14004KT 3/4SM BR OVC003 13/13 A3002 RMK AO2 LTG DSNT SE
Observed Flight Rules
May-23 @ 02:30 UTC
(30 minutes ago)
LIFR
Wind Visibility
140° at 4 knots 3/4 miles
Clouds
  • Overcast at 300' AGL
Conditions
  • Mist
Temperature Dewpoint
13°C / 55°F 13°C / 55°F
Humidity Altimeter Pressure
100% 30.02" Hg 1017 hPa